createdAt,value
2019-04-21T00:02:28.064Z,2.33
2019-04-21T00:05:10.879Z,2.30
2019-04-21T00:07:45.363Z,1.92
2019-04-21T00:10:18.827Z,2.22
2019-04-21T00:12:51.788Z,1.93
2019-04-21T00:15:18.029Z,2.00
2019-04-21T00:17:43.578Z,1.70
2019-04-21T00:20:23.787Z,1.32
2019-04-21T00:23:02.817Z,1.57
2019-04-21T00:25:33.720Z,2.17
2019-04-21T00:28:16.819Z,1.42
2019-04-21T00:30:50.792Z,1.63
2019-04-21T00:33:10.292Z,2.07
2019-04-21T00:35:43.358Z,1.87
2019-04-21T00:38:24.975Z,1.80
2019-04-21T00:41:00.368Z,1.80
2019-04-21T00:43:29.393Z,1.77
2019-04-21T00:45:57.572Z,2.57
2019-04-21T00:48:41.348Z,2.20
2019-04-21T00:51:25.018Z,1.80
2019-04-21T00:53:58.120Z,1.62
2019-04-21T00:56:27.882Z,2.37
2019-04-21T00:58:59.267Z,1.70
2019-04-21T01:01:31.216Z,2.00
2019-04-21T01:04:04.851Z,2.42
2019-04-21T01:06:42.495Z,2.20
2019-04-21T01:09:07.700Z,2.72
2019-04-21T01:11:47.808Z,1.80
2019-04-21T01:14:23.621Z,2.10
2019-04-21T01:16:55.965Z,1.97
2019-04-21T01:19:20.939Z,1.90
2019-04-21T01:21:34.988Z,1.43
2019-04-21T01:24:13.344Z,2.03
2019-04-21T01:26:53.648Z,1.40
2019-04-21T01:29:37.516Z,1.50
2019-04-21T01:32:13.443Z,1.80
2019-04-21T01:34:39.357Z,1.50
2019-04-21T01:37:04.118Z,1.87
2019-04-21T01:39:46.941Z,1.70
2019-04-21T01:42:18.821Z,1.50
2019-04-21T01:44:52.301Z,2.20
2019-04-21T01:47:17.368Z,1.83
2019-04-21T01:49:47.535Z,1.97
2019-04-21T01:52:38.383Z,2.30
2019-04-21T01:55:25.050Z,1.53
2019-04-21T01:58:01.944Z,1.80
2019-04-21T02:00:51.806Z,1.40
2019-04-21T02:03:48.690Z,1.80
2019-04-21T02:06:12.055Z,1.70
2019-04-21T02:08:31.344Z,2.23
2019-04-21T02:11:11.250Z,1.85
2019-04-21T02:13:50.226Z,1.67
2019-04-21T02:16:19.039Z,1.70
2019-04-21T02:18:47.803Z,1.70
2019-04-21T02:21:17.881Z,1.75
2019-04-21T02:24:01.828Z,1.07
2019-04-21T02:26:27.418Z,1.80
2019-04-21T02:29:10.688Z,1.70
2019-04-21T02:32:07.867Z,1.20
2019-04-21T02:41:54.552Z,1.40
2019-04-21T02:49:46.891Z,1.60
2019-04-21T02:52:11.491Z,1.60
2019-04-21T02:59:59.605Z,1.67
2019-04-21T03:05:31.033Z,1.70
2019-04-21T03:07:55.485Z,1.70
2019-04-21T03:13:05.997Z,1.53
2019-04-21T03:20:49.134Z,2.13
2019-04-21T03:38:37.686Z,2.27
2019-04-21T03:41:04.211Z,2.17
2019-04-21T03:43:36.175Z,2.00
2019-04-21T03:46:08.592Z,2.37
2019-04-21T03:48:40.643Z,2.00
2019-04-21T03:53:48.093Z,1.90
2019-04-21T03:56:27.792Z,1.90
2019-04-21T03:58:58.506Z,2.57
2019-04-21T04:01:40.386Z,2.12
2019-04-21T04:10:03.700Z,1.33
2019-04-21T04:15:00.988Z,1.43
2019-04-21T04:17:36.034Z,1.73
2019-04-21T04:20:13.209Z,1.23
2019-04-21T04:32:46.659Z,2.20
2019-04-21T04:35:38.388Z,1.47
2019-04-21T04:38:00.893Z,1.30
2019-04-21T04:40:38.357Z,2.40
2019-04-21T04:43:20.622Z,1.90
2019-04-21T04:45:48.429Z,1.50
2019-04-21T04:48:24.121Z,2.10
2019-04-21T04:50:53.145Z,2.10
2019-04-21T04:53:42.753Z,1.70
2019-04-21T04:56:08.223Z,2.33
2019-04-21T04:59:10.715Z,1.60
2019-04-21T05:03:49.464Z,1.60
2019-04-21T05:21:43.981Z,1.82
2019-04-21T05:24:12.400Z,1.40
2019-04-21T05:26:43.291Z,1.87
2019-04-21T05:29:11.009Z,1.52
2019-04-21T05:32:04.590Z,1.97
2019-04-21T05:34:31.886Z,1.57
2019-04-21T05:37:15.505Z,1.60
2019-04-21T05:39:49.244Z,2.03
2019-04-21T05:42:15.349Z,1.93
2019-04-21T05:47:46.387Z,1.40
2019-04-21T05:50:15.034Z,1.60
2019-04-21T05:52:55.929Z,1.27
2019-04-21T05:58:02.669Z,1.60
2019-04-21T06:01:06.079Z,2.27
2019-04-21T06:03:16.483Z,2.27
2019-04-21T06:05:53.315Z,2.40
2019-04-21T06:08:21.649Z,2.08
2019-04-21T06:13:29.567Z,1.52
2019-04-21T06:16:03.883Z,2.17
2019-04-21T06:18:36.016Z,1.70
2019-04-21T06:21:05.561Z,1.70
2019-04-21T06:23:36.732Z,1.83
2019-04-21T06:33:48.923Z,2.52
2019-04-21T06:36:53.175Z,2.02
2019-04-21T06:39:12.164Z,2.17
2019-04-21T06:44:11.850Z,2.10
2019-04-21T06:46:41.425Z,2.53
2019-04-21T06:49:15.963Z,2.13
2019-04-21T06:51:49.787Z,2.42
2019-04-21T06:54:21.030Z,2.10
2019-04-21T06:57:08.735Z,1.92
2019-04-21T06:59:28.077Z,1.83
2019-04-21T07:04:47.003Z,2.50
2019-04-21T07:07:15.922Z,2.20
2019-04-21T07:10:01.453Z,1.83
2019-04-21T07:12:13.761Z,2.17
2019-04-21T07:14:52.679Z,1.83
2019-04-21T07:20:03.802Z,2.23
2019-04-21T07:22:33.728Z,1.70
2019-04-21T07:25:02.742Z,1.70
2019-04-21T07:27:44.958Z,2.30
2019-04-21T07:32:45.982Z,2.03
2019-04-21T07:35:17.535Z,2.17
2019-04-21T07:37:51.253Z,2.00
2019-04-21T07:40:17.726Z,2.37
2019-04-21T07:42:47.746Z,2.33
2019-04-21T07:45:17.999Z,1.73
2019-04-21T07:48:01.644Z,2.50
2019-04-21T07:50:46.355Z,2.87
2019-04-21T07:53:30.291Z,2.62
2019-04-21T07:55:35.786Z,2.60
2019-04-21T07:58:31.074Z,2.97
2019-04-21T08:03:34.836Z,3.08
2019-04-21T08:06:02.131Z,2.47
2019-04-21T08:08:34.572Z,2.57
2019-04-21T08:11:13.373Z,2.40
2019-04-21T08:13:57.367Z,2.93
2019-04-21T08:16:21.157Z,3.40
2019-04-21T08:18:52.360Z,2.60
2019-04-21T08:21:20.783Z,2.85
2019-04-21T08:23:54.187Z,3.27
2019-04-21T08:26:33.781Z,3.13
2019-04-21T08:29:07.891Z,3.50
2019-04-21T08:31:39.235Z,3.27
2019-04-21T08:34:09.661Z,2.40
2019-04-21T08:36:40.279Z,3.25
2019-04-21T08:39:12.752Z,3.77
2019-04-21T08:41:48.459Z,2.80
2019-04-21T08:44:24.320Z,2.87
2019-04-21T08:46:56.325Z,2.37
2019-04-21T08:49:22.316Z,2.63
2019-04-21T08:52:00.711Z,2.37
2019-04-21T08:54:35.095Z,3.03
2019-04-21T08:57:21.545Z,2.63
2019-04-21T09:00:08.348Z,2.35
2019-04-21T09:02:40.270Z,2.17
2019-04-21T09:05:11.116Z,2.05
2019-04-21T09:07:44.920Z,2.03
2019-04-21T09:10:17.589Z,2.20
2019-04-21T09:12:53.514Z,1.60
2019-04-21T09:15:24.935Z,1.80
2019-04-21T09:17:49.201Z,1.70
2019-04-21T09:20:33.602Z,1.80
2019-04-21T09:23:00.788Z,1.30
2019-04-21T09:25:44.823Z,1.40
2019-04-21T09:28:04.050Z,1.57
2019-04-21T09:30:24.121Z,1.33
2019-04-21T09:32:58.145Z,1.70
2019-04-21T09:35:29.161Z,1.70
2019-04-21T09:38:11.280Z,1.70
2019-04-21T09:40:37.371Z,1.27
2019-04-21T09:43:09.545Z,1.63
2019-04-21T09:45:38.892Z,1.40
2019-04-21T09:48:15.583Z,1.50
2019-04-21T09:50:43.375Z,1.17
2019-04-21T09:53:26.356Z,1.22
2019-04-21T09:55:54.263Z,1.40
2019-04-21T09:58:29.304Z,1.83
2019-04-21T10:01:05.170Z,1.35
2019-04-21T10:03:39.606Z,1.27
2019-04-21T10:06:00.702Z,1.07
2019-04-21T10:08:31.942Z,1.10
2019-04-21T10:11:03.360Z,1.10
2019-04-21T10:13:36.243Z,1.07
2019-04-21T10:16:21.894Z,1.40
2019-04-21T10:18:54.623Z,1.27
2019-04-21T10:21:27.658Z,1.52
2019-04-21T10:23:59.839Z,1.10
2019-04-21T10:26:31.058Z,1.70
2019-04-21T10:29:08.168Z,1.70
2019-04-21T10:31:36.660Z,1.37
2019-04-21T10:34:09.353Z,1.35
2019-04-21T10:36:40.779Z,1.37
2019-04-21T10:39:13.571Z,1.77
2019-04-21T10:41:45.819Z,1.40
2019-04-21T10:44:17.154Z,1.67
2019-04-21T10:46:51.827Z,1.40
2019-04-21T10:49:23.003Z,1.47
2019-04-21T10:51:55.012Z,1.20
2019-04-21T10:54:38.805Z,1.02
2019-04-21T10:57:02.105Z,1.27
2019-04-21T10:59:33.616Z,1.30
2019-04-21T11:02:07.259Z,1.53
2019-04-21T11:04:40.218Z,1.20
2019-04-21T11:07:33.439Z,1.10
2019-04-21T11:10:02.489Z,1.00
2019-04-21T11:12:36.483Z,1.40
2019-04-21T11:15:09.430Z,1.03
2019-04-21T11:17:43.487Z,0.90
2019-04-21T11:20:14.967Z,1.17
2019-04-21T11:22:47.307Z,1.00
2019-04-21T11:25:19.786Z,1.40
2019-04-21T11:27:51.461Z,1.02
2019-04-21T11:30:23.396Z,1.15
2019-04-21T11:32:55.279Z,1.47
2019-04-21T11:35:27.629Z,1.30
2019-04-21T11:38:10.697Z,1.20
2019-04-21T11:40:36.034Z,1.07
2019-04-21T11:43:07.210Z,1.57
2019-04-21T11:45:40.100Z,1.20
2019-04-21T11:48:39.999Z,1.37
2019-04-21T11:51:11.131Z,1.50
2019-04-21T11:53:43.120Z,1.13
2019-04-21T11:56:14.945Z,1.47
2019-04-21T11:58:47.798Z,1.13
2019-04-21T12:01:19.264Z,1.30
2019-04-21T12:03:51.726Z,1.62
2019-04-21T12:06:31.722Z,1.40
2019-04-21T12:08:59.087Z,1.47
2019-04-21T12:11:29.415Z,1.63
2019-04-21T12:14:00.723Z,1.45
2019-04-21T12:16:33.118Z,1.40
2019-04-21T12:19:05.133Z,1.40
2019-04-21T12:21:49.212Z,1.40
2019-04-21T12:24:09.209Z,1.57
2019-04-21T12:26:40.345Z,1.60
2019-04-21T12:29:11.686Z,1.33
2019-04-21T12:32:01.685Z,1.30
2019-04-21T12:34:34.309Z,1.33
2019-04-21T12:37:06.777Z,1.27
2019-04-21T12:39:38.733Z,1.00
2019-04-21T12:42:09.918Z,1.37
2019-04-21T12:44:41.337Z,1.00
2019-04-21T12:47:12.527Z,1.87
2019-04-21T12:49:43.786Z,1.83
2019-04-21T12:52:15.627Z,1.20
2019-04-21T12:54:48.048Z,1.37
2019-04-21T12:57:19.240Z,1.23
2019-04-21T12:59:50.930Z,1.50
2019-04-21T13:02:23.394Z,1.22
2019-04-21T13:04:55.866Z,1.60
2019-04-21T13:07:27.706Z,1.20
2019-04-21T13:10:00.107Z,1.50
2019-04-21T13:12:31.424Z,1.62
2019-04-21T13:15:04.238Z,1.20
2019-04-21T13:17:35.577Z,1.20
2019-04-21T13:20:07.882Z,1.20
2019-04-21T13:22:39.768Z,1.40
2019-04-21T13:25:11.899Z,1.60
2019-04-21T13:27:45.055Z,1.27
2019-04-21T13:30:18.229Z,1.27
2019-04-21T13:32:49.339Z,0.97
2019-04-21T13:35:21.206Z,1.30
2019-04-21T13:37:52.488Z,1.73
2019-04-21T13:40:56.840Z,1.50
2019-04-21T13:43:25.253Z,1.23
2019-04-21T13:45:57.525Z,1.50
2019-04-21T13:48:28.713Z,1.36
2019-04-21T13:50:59.657Z,1.50
2019-04-21T13:53:32.588Z,1.35
2019-04-21T13:56:04.729Z,1.40
2019-04-21T13:58:35.792Z,1.20
2019-04-21T14:01:07.698Z,1.20
2019-04-21T14:03:39.653Z,1.10
2019-04-21T14:06:12.055Z,1.30
2019-04-21T14:08:54.712Z,1.30
2019-04-21T14:11:27.198Z,1.27
2019-04-21T14:13:58.611Z,1.30
2019-04-21T14:16:29.885Z,1.35
2019-04-21T14:19:01.485Z,1.35
2019-04-21T14:21:33.757Z,1.40
2019-04-21T14:24:06.672Z,1.40
2019-04-21T14:26:38.540Z,1.23
2019-04-21T14:29:11.320Z,1.27
2019-04-21T14:31:44.243Z,1.47
2019-04-21T14:34:16.455Z,1.00
2019-04-21T14:36:50.757Z,1.23
2019-04-21T14:39:50.428Z,1.25
2019-04-21T14:42:14.115Z,1.30
2019-04-21T14:44:46.864Z,1.23
2019-04-21T14:47:37.995Z,1.50
2019-04-21T14:50:28.375Z,1.30
2019-04-21T14:53:12.258Z,1.37
2019-04-21T14:55:45.770Z,1.00
2019-04-21T14:58:17.273Z,1.20
2019-04-21T15:00:57.784Z,1.50
2019-04-21T15:03:29.978Z,1.10
2019-04-21T15:06:01.263Z,1.52
2019-04-21T15:08:33.387Z,1.62
2019-04-21T15:11:05.313Z,1.20
2019-04-21T15:13:37.631Z,1.50
2019-04-21T15:16:09.094Z,1.13
2019-04-21T15:18:40.995Z,1.60
2019-04-21T15:21:13.232Z,1.57
2019-04-21T15:23:46.591Z,1.35
2019-04-21T15:26:18.079Z,1.23
2019-04-21T15:28:49.160Z,1.03
2019-04-21T15:31:29.844Z,1.10
2019-04-21T15:33:53.144Z,1.27
2019-04-21T15:36:25.028Z,1.40
2019-04-21T15:38:56.232Z,1.20
2019-04-21T15:41:27.284Z,1.57
2019-04-21T15:44:01.268Z,1.07
2019-04-21T15:50:03.032Z,1.37
2019-04-21T15:52:29.916Z,1.13
2019-04-21T15:55:10.632Z,1.47
2019-04-21T15:58:06.852Z,1.30
2019-04-21T16:00:49.856Z,1.30
2019-04-21T16:03:22.583Z,1.27
2019-04-21T16:05:53.899Z,1.30
2019-04-21T16:08:24.987Z,1.40
2019-04-21T16:11:00.139Z,1.27
2019-04-21T16:13:29.892Z,1.50
2019-04-21T16:16:02.121Z,1.47
2019-04-21T16:18:34.262Z,1.70
2019-04-21T16:21:06.125Z,1.20
2019-04-21T16:23:38.330Z,1.22
2019-04-21T16:26:10.867Z,1.50
2019-04-21T16:28:42.007Z,1.60
2019-04-21T16:31:14.239Z,1.33
2019-04-21T16:33:45.573Z,1.20
2019-04-21T16:36:18.318Z,1.40
2019-04-21T16:38:49.775Z,1.37
2019-04-21T16:41:22.317Z,1.10
2019-04-21T16:43:53.476Z,1.53
2019-04-21T16:46:25.332Z,1.40
2019-04-21T16:48:57.791Z,1.20
2019-04-21T16:51:29.619Z,1.20
2019-04-21T16:54:10.301Z,1.80
2019-04-21T16:56:55.023Z,1.97
2019-04-21T16:59:32.561Z,1.40
2019-04-21T17:02:04.922Z,1.80
2019-04-21T17:04:36.306Z,1.30
2019-04-21T17:07:09.123Z,1.27
2019-04-21T17:09:40.928Z,1.37
2019-04-21T17:12:14.657Z,1.20
2019-04-21T17:15:03.060Z,1.20
2019-04-21T17:17:44.642Z,1.27
2019-04-21T17:19:54.232Z,0.93
2019-04-21T17:22:25.770Z,1.10
2019-04-21T17:24:58.260Z,1.30
2019-04-21T17:27:29.477Z,1.47
2019-04-21T17:30:01.184Z,1.00
2019-04-21T17:32:37.221Z,1.02
2019-04-21T17:35:05.999Z,0.97
2019-04-21T17:37:38.334Z,1.67
2019-04-21T17:40:11.538Z,1.47
2019-04-21T17:42:49.274Z,1.15
2019-04-21T17:45:17.186Z,1.30
2019-04-21T17:47:54.477Z,1.30
2019-04-21T17:50:56.780Z,1.43
2019-04-21T17:53:43.267Z,1.57
2019-04-21T17:56:32.905Z,1.20
2019-04-21T17:59:04.428Z,1.00
2019-04-21T18:01:39.312Z,1.35
2019-04-21T18:04:12.624Z,1.27
2019-04-21T18:07:10.339Z,1.63
2019-04-21T18:09:56.565Z,1.50
2019-04-21T18:12:22.608Z,1.20
2019-04-21T18:14:51.799Z,1.42
2019-04-21T18:17:11.643Z,1.40
2019-04-21T18:19:45.783Z,1.20
2019-04-21T18:22:40.935Z,1.10
2019-04-21T18:25:24.217Z,1.00
2019-04-21T18:27:43.177Z,0.97
2019-04-21T18:33:14.161Z,1.40
2019-04-21T18:35:58.598Z,1.23
2019-04-21T18:39:00.073Z,1.27
2019-04-21T18:41:15.395Z,1.33
2019-04-21T18:44:15.551Z,1.30
2019-04-21T18:46:55.771Z,1.30
2019-04-21T18:49:06.794Z,1.52
2019-04-21T18:52:08.091Z,1.37
2019-04-21T18:54:45.813Z,1.43
2019-04-21T18:57:13.640Z,1.60
2019-04-21T18:59:41.408Z,1.25
2019-04-21T19:02:11.151Z,1.57
2019-04-21T19:04:43.134Z,1.70
2019-04-21T19:07:26.986Z,1.32
2019-04-21T19:13:07.999Z,1.80
2019-04-21T19:15:13.685Z,1.30
2019-04-21T19:18:14.937Z,1.50
2019-04-21T19:22:52.221Z,1.00
2019-04-21T19:25:25.415Z,1.47
2019-04-21T19:27:59.020Z,1.13
2019-04-21T19:30:39.900Z,1.26
2019-04-21T19:33:10.217Z,1.73
2019-04-21T19:35:25.707Z,1.10
2019-04-21T19:38:01.177Z,1.25
2019-04-21T19:40:47.395Z,1.35
2019-04-21T19:43:17.040Z,1.60
2019-04-21T19:45:48.662Z,1.50
2019-04-21T19:48:24.139Z,1.43
2019-04-21T19:51:04.309Z,1.30
2019-04-21T19:53:34.622Z,1.13
2019-04-21T19:55:47.892Z,1.07
2019-04-21T19:58:26.413Z,1.17
2019-04-21T20:00:55.541Z,1.30
2019-04-21T20:03:26.336Z,1.32
2019-04-21T20:06:04.021Z,1.47
2019-04-21T20:08:44.612Z,1.07
2019-04-21T20:11:20.244Z,1.00
2019-04-21T20:14:13.863Z,1.20
2019-04-21T20:16:31.940Z,1.23
2019-04-21T20:18:49.534Z,1.50
2019-04-21T20:21:16.469Z,1.37
2019-04-21T20:23:47.851Z,1.23
2019-04-21T20:26:24.680Z,1.50
2019-04-21T20:29:01.092Z,1.10
2019-04-21T20:31:42.719Z,1.40
2019-04-21T20:34:21.208Z,1.17
2019-04-21T20:37:00.364Z,1.23
2019-04-21T20:39:13.203Z,1.40
2019-04-21T20:41:52.405Z,1.60
2019-04-21T20:44:29.631Z,1.10
2019-04-21T20:46:59.897Z,1.35
2019-04-21T20:49:30.443Z,1.87
2019-04-21T20:52:10.814Z,1.32
2019-04-21T20:54:40.799Z,1.60
2019-04-21T20:57:18.974Z,1.10
2019-04-21T20:59:44.039Z,1.80
2019-04-21T21:02:20.381Z,1.53
2019-04-21T21:04:45.607Z,1.57
2019-04-21T21:07:40.020Z,1.57
2019-04-21T21:10:08.790Z,1.50
2019-04-21T21:15:00.094Z,1.30
2019-04-21T21:17:50.270Z,1.77
2019-04-21T21:20:12.697Z,1.37
2019-04-21T21:22:44.038Z,1.25
2019-04-21T21:25:30.483Z,1.30
2019-04-21T21:27:47.152Z,1.20
2019-04-21T21:30:23.135Z,1.20
2019-04-21T21:33:00.857Z,1.53
2019-04-21T21:35:34.634Z,1.53
2019-04-21T21:38:08.192Z,1.60
2019-04-21T21:40:54.656Z,1.67
2019-04-21T21:43:17.562Z,1.67
2019-04-21T21:45:51.896Z,1.43
2019-04-21T21:48:31.838Z,1.40
2019-04-21T21:51:02.909Z,1.43
2019-04-21T21:53:28.632Z,1.35
2019-04-21T21:55:58.556Z,1.70
2019-04-21T21:58:33.870Z,1.30
2019-04-21T22:01:06.430Z,1.50
2019-04-21T22:03:39.827Z,1.37
2019-04-21T22:06:13.649Z,1.00
2019-04-21T22:08:42.632Z,1.72
2019-04-21T22:11:13.744Z,1.83
2019-04-21T22:13:53.210Z,1.53
2019-04-21T22:16:19.975Z,0.82
2019-04-21T22:19:07.920Z,1.50
2019-04-21T22:21:44.213Z,1.30
2019-04-21T22:24:04.786Z,1.23
2019-04-21T22:26:29.351Z,0.97
2019-04-21T22:29:01.514Z,1.40
2019-04-21T22:31:37.136Z,1.05
2019-04-21T22:34:09.416Z,1.43
2019-04-21T22:36:48.794Z,1.13
2019-04-21T22:39:28.462Z,1.03
2019-04-21T22:41:47.556Z,1.10
2019-04-21T22:44:18.969Z,1.10
2019-04-21T22:46:58.140Z,1.20
2019-04-21T22:49:23.776Z,1.30
2019-04-21T22:51:55.677Z,1.03
2019-04-21T22:54:34.173Z,1.32
2019-04-21T22:57:07.292Z,1.45
2019-04-21T22:59:34.165Z,1.02
2019-04-21T23:02:15.372Z,1.22
2019-04-21T23:04:45.249Z,1.13
2019-04-21T23:07:15.871Z,1.20
2019-04-21T23:09:45.514Z,1.60
2019-04-21T23:12:20.459Z,1.15
2019-04-21T23:14:58.480Z,1.03
2019-04-21T23:17:48.260Z,1.42
2019-04-21T23:20:17.898Z,1.10
2019-04-21T23:22:58.560Z,1.47
2019-04-21T23:25:25.123Z,1.27
2019-04-21T23:27:57.386Z,1.62
2019-04-21T23:30:32.341Z,1.10
2019-04-21T23:32:52.680Z,0.83
2019-04-21T23:35:25.444Z,1.07
2019-04-21T23:37:58.016Z,1.37
2019-04-21T23:40:26.981Z,1.17
2019-04-21T23:43:00.162Z,1.00
2019-04-21T23:45:34.043Z,1.30
2019-04-21T23:48:19.672Z,1.50
2019-04-21T23:50:45.930Z,1.37
2019-04-21T23:53:07.944Z,1.63
2019-04-21T23:55:39.106Z,1.50
2019-04-21T23:58:16.382Z,1.10
